createdAt,value
2023-05-14T00:01:02.280Z,83.82
2023-05-14T00:03:31.212Z,84.01
2023-05-14T00:05:59.515Z,85.25
2023-05-14T00:08:27.716Z,84.60
2023-05-14T00:10:55.906Z,84.16
2023-05-14T00:13:25.890Z,83.21
2023-05-14T00:15:54.168Z,84.56
2023-05-14T00:18:22.450Z,83.46
2023-05-14T00:20:54.957Z,85.71
2023-05-14T00:23:23.921Z,84.29
2023-05-14T00:25:52.220Z,84.79
2023-05-14T00:28:21.069Z,86.50
2023-05-14T00:30:50.054Z,84.89
2023-05-14T00:33:18.316Z,85.54
2023-05-14T00:35:47.312Z,84.88
2023-05-14T00:38:17.248Z,84.83
2023-05-14T00:40:51.399Z,83.32
2023-05-14T00:43:23.653Z,82.91
2023-05-14T00:45:54.841Z,83.20
2023-05-14T00:48:23.698Z,84.25
2023-05-14T00:50:52.363Z,85.03
2023-05-14T00:53:21.065Z,85.30
2023-05-14T00:55:50.804Z,85.20
2023-05-14T00:58:20.004Z,83.47
2023-05-14T01:00:48.438Z,85.12
2023-05-14T01:03:16.890Z,84.76
2023-05-14T01:05:58.418Z,84.57
2023-05-14T01:09:08.335Z,84.22
2023-05-14T01:11:48.116Z,85.79
2023-05-14T01:14:31.528Z,85.25
2023-05-14T01:17:02.450Z,84.67
2023-05-14T01:19:41.964Z,85.45
2023-05-14T01:22:11.965Z,84.73
2023-05-14T01:24:40.816Z,84.94
2023-05-14T01:27:21.413Z,85.98
2023-05-14T01:30:03.259Z,86.14
2023-05-14T01:32:33.754Z,86.79
2023-05-14T01:35:02.898Z,85.67
2023-05-14T01:37:32.390Z,85.46
2023-05-14T01:40:01.781Z,84.36
2023-05-14T01:42:30.926Z,84.39
2023-05-14T01:45:00.031Z,85.64
2023-05-14T01:47:28.463Z,84.77
2023-05-14T01:49:56.775Z,85.92
2023-05-14T01:52:25.110Z,85.81
2023-05-14T01:54:53.339Z,85.54
2023-05-14T01:57:21.651Z,84.19
2023-05-14T01:59:49.858Z,83.38
2023-05-14T02:02:18.174Z,83.98
2023-05-14T02:04:46.776Z,84.42
2023-05-14T02:07:15.513Z,85.02
2023-05-14T02:09:43.987Z,84.80
2023-05-14T02:12:12.347Z,84.94
2023-05-14T02:14:40.635Z,84.75
2023-05-14T02:17:09.160Z,84.88
2023-05-14T02:19:37.379Z,85.47
2023-05-14T02:22:05.831Z,85.52
2023-05-14T02:24:35.368Z,85.96
2023-05-14T02:27:04.317Z,86.07
2023-05-14T02:29:32.673Z,85.86
2023-05-14T02:32:01.002Z,85.95
2023-05-14T02:34:29.268Z,86.54
2023-05-14T02:36:57.483Z,86.83
2023-05-14T02:39:25.678Z,86.40
2023-05-14T02:41:53.940Z,86.58
2023-05-14T02:44:22.127Z,84.87
2023-05-14T02:46:50.513Z,84.37
2023-05-14T02:49:18.810Z,85.61
2023-05-14T02:51:47.102Z,85.20
2023-05-14T02:54:16.832Z,86.36
2023-05-14T02:56:45.171Z,86.21
2023-05-14T02:59:13.391Z,86.57
2023-05-14T03:01:42.708Z,86.58
2023-05-14T03:04:11.434Z,85.96
2023-05-14T03:06:39.779Z,85.43
2023-05-14T03:09:08.021Z,84.83
2023-05-14T03:11:36.307Z,84.40
2023-05-14T03:14:04.638Z,85.34
2023-05-14T03:16:32.969Z,87.12
2023-05-14T03:19:01.318Z,86.55
2023-05-14T03:21:29.825Z,87.68
2023-05-14T03:23:58.094Z,86.35
2023-05-14T03:26:26.382Z,86.47
2023-05-14T03:28:55.172Z,86.46
2023-05-14T03:31:23.462Z,85.98
2023-05-14T03:33:51.976Z,87.73
2023-05-14T03:36:20.406Z,87.57
2023-05-14T03:38:49.127Z,87.95
2023-05-14T03:41:20.157Z,87.33
2023-05-14T03:43:48.484Z,86.44
2023-05-14T03:46:16.829Z,85.88
2023-05-14T03:48:45.298Z,85.67
2023-05-14T03:51:13.696Z,86.20
2023-05-14T03:53:42.026Z,86.41
2023-05-14T03:56:10.243Z,86.14
2023-05-14T03:58:38.577Z,86.11
2023-05-14T04:01:06.839Z,86.55
2023-05-14T04:03:35.291Z,85.96
2023-05-14T04:06:03.748Z,85.69
2023-05-14T04:08:32.044Z,85.34
2023-05-14T04:11:01.664Z,84.79
2023-05-14T04:13:29.935Z,85.80
2023-05-14T04:15:58.226Z,85.33
2023-05-14T04:18:26.629Z,85.56
2023-05-14T04:20:56.148Z,86.40
2023-05-14T04:23:24.521Z,85.78
2023-05-14T04:25:52.779Z,86.08
2023-05-14T04:28:21.004Z,85.50
2023-05-14T04:30:49.524Z,85.56
2023-05-14T04:33:17.760Z,85.44
2023-05-14T04:35:47.029Z,85.90
2023-05-14T04:38:15.652Z,85.71
2023-05-14T04:40:43.949Z,85.13
2023-05-14T04:43:12.272Z,84.54
2023-05-14T04:45:41.242Z,83.86
2023-05-14T04:48:09.682Z,84.13
2023-05-14T04:50:38.072Z,84.03
2023-05-14T04:53:06.351Z,83.99
2023-05-14T04:55:34.650Z,84.00
2023-05-14T04:58:03.098Z,84.08
2023-05-14T05:00:31.408Z,83.71
2023-05-14T05:02:59.873Z,83.31
2023-05-14T05:05:28.245Z,83.15
2023-05-14T05:07:56.489Z,83.63
2023-05-14T05:10:25.158Z,81.73
2023-05-14T05:12:53.742Z,79.10
2023-05-14T05:15:21.962Z,79.64
2023-05-14T05:17:50.198Z,82.23
2023-05-14T05:20:18.839Z,82.12
2023-05-14T05:22:47.472Z,76.53
2023-05-14T05:25:15.731Z,72.70
2023-05-14T05:27:43.937Z,71.58
2023-05-14T05:30:12.817Z,65.53
2023-05-14T05:32:41.133Z,68.89
2023-05-14T05:35:09.951Z,66.76
2023-05-14T05:37:38.145Z,63.01
2023-05-14T05:40:07.276Z,60.15
2023-05-14T05:42:35.601Z,54.78
2023-05-14T05:45:04.200Z,55.41
2023-05-14T05:47:32.514Z,51.66
2023-05-14T05:50:00.747Z,48.71
2023-05-14T05:52:29.067Z,49.31
2023-05-14T05:54:57.319Z,45.56
2023-05-14T05:57:27.254Z,46.99
2023-05-14T05:59:55.656Z,45.24
2023-05-14T06:02:25.372Z,42.82
2023-05-14T06:04:53.900Z,41.49
2023-05-14T06:07:22.213Z,42.75
2023-05-14T06:09:50.415Z,39.85
2023-05-14T06:12:18.646Z,39.77
2023-05-14T06:14:46.785Z,38.38
2023-05-14T06:17:15.022Z,40.18
2023-05-14T06:19:43.245Z,36.65
2023-05-14T06:22:11.489Z,37.68
2023-05-14T06:24:39.562Z,38.28
2023-05-14T06:27:07.835Z,35.94
2023-05-14T06:29:36.105Z,37.46
2023-05-14T06:32:04.929Z,35.34
2023-05-14T06:34:33.138Z,33.89
2023-05-14T06:37:04.277Z,35.09
2023-05-14T06:39:32.646Z,34.32
2023-05-14T06:42:00.886Z,34.19
2023-05-14T06:44:32.004Z,35.42
2023-05-14T06:47:00.605Z,34.57
2023-05-14T06:49:29.050Z,33.84
2023-05-14T06:51:57.371Z,33.97
2023-05-14T06:54:25.737Z,33.16
2023-05-14T06:56:54.410Z,32.51
2023-05-14T06:59:22.682Z,32.34
2023-05-14T07:01:51.046Z,33.50
2023-05-14T07:04:19.444Z,31.30
2023-05-14T07:06:47.816Z,31.80
2023-05-14T07:09:16.332Z,33.17
2023-05-14T07:11:44.491Z,31.67
2023-05-14T07:14:13.118Z,32.09
2023-05-14T07:16:42.421Z,33.14
2023-05-14T07:19:10.764Z,31.68
2023-05-14T07:21:38.921Z,31.82
2023-05-14T07:24:07.393Z,32.60
2023-05-14T07:26:35.664Z,31.54
2023-05-14T07:29:03.909Z,30.66
2023-05-14T07:31:32.220Z,31.24
2023-05-14T07:34:00.607Z,31.67
2023-05-14T07:36:28.934Z,31.88
2023-05-14T07:38:57.395Z,31.25
2023-05-14T07:41:25.718Z,31.84
2023-05-14T07:43:54.090Z,30.55
2023-05-14T07:46:22.424Z,30.70
2023-05-14T07:48:51.337Z,30.14
2023-05-14T07:51:19.791Z,30.13
2023-05-14T07:53:47.928Z,31.13
2023-05-14T07:56:16.136Z,29.55
2023-05-14T07:58:44.331Z,30.31
2023-05-14T08:01:13.091Z,29.14
2023-05-14T08:03:41.534Z,29.67
2023-05-14T08:06:09.893Z,30.69
2023-05-14T08:08:38.259Z,30.86
2023-05-14T08:11:06.630Z,30.47
2023-05-14T08:13:34.922Z,30.00
2023-05-14T08:16:03.238Z,30.71
2023-05-14T08:18:31.582Z,28.88
2023-05-14T08:21:01.011Z,28.86
2023-05-14T08:23:30.551Z,29.09
2023-05-14T08:25:59.471Z,28.45
2023-05-14T08:28:28.070Z,27.82
2023-05-14T08:30:56.294Z,28.00
2023-05-14T08:33:24.528Z,27.95
2023-05-14T08:35:56.421Z,28.73
2023-05-14T08:38:24.645Z,28.38
2023-05-14T08:40:59.972Z,28.60
2023-05-14T08:43:46.157Z,29.88
2023-05-14T08:46:17.561Z,29.90
2023-05-14T08:48:51.368Z,27.50
2023-05-14T08:51:19.702Z,28.75
2023-05-14T08:53:48.188Z,28.74
2023-05-14T08:56:18.459Z,28.01
2023-05-14T08:58:46.688Z,28.59
2023-05-14T09:01:14.956Z,29.82
2023-05-14T09:03:44.419Z,29.32
2023-05-14T09:06:14.613Z,29.65
2023-05-14T09:08:43.095Z,29.06
2023-05-14T09:11:11.386Z,29.61
2023-05-14T09:13:39.646Z,30.25
2023-05-14T09:16:07.999Z,30.99
2023-05-14T09:18:37.069Z,30.44
2023-05-14T09:21:05.693Z,30.94
2023-05-14T09:23:34.731Z,30.23
2023-05-14T09:26:06.256Z,30.12
2023-05-14T09:28:34.562Z,30.32
2023-05-14T09:31:03.185Z,31.41
2023-05-14T09:33:31.702Z,31.11
2023-05-14T09:36:00.949Z,30.93
2023-05-14T09:38:31.033Z,33.12
2023-05-14T09:41:00.871Z,32.98
2023-05-14T09:43:29.151Z,32.73
2023-05-14T09:45:57.374Z,34.69
2023-05-14T09:48:26.264Z,34.63
2023-05-14T09:50:54.726Z,33.45
2023-05-14T09:53:23.050Z,32.92
2023-05-14T09:55:51.429Z,33.41
2023-05-14T09:58:19.656Z,33.78
2023-05-14T10:00:48.095Z,32.95
2023-05-14T10:03:19.766Z,34.54
2023-05-14T10:05:51.167Z,35.85
2023-05-14T10:08:27.937Z,32.79
2023-05-14T10:10:59.196Z,34.76
2023-05-14T10:13:40.053Z,35.36
2023-05-14T10:16:22.157Z,35.62
2023-05-14T10:18:57.174Z,34.30
2023-05-14T10:21:27.015Z,36.18
2023-05-14T10:23:55.963Z,35.00
2023-05-14T10:26:25.494Z,34.14
2023-05-14T10:28:54.008Z,33.19
2023-05-14T10:31:47.824Z,32.63
2023-05-14T10:34:34.882Z,33.76
2023-05-14T10:37:08.711Z,32.16
2023-05-14T10:39:54.084Z,32.90
2023-05-14T10:42:23.690Z,31.61
2023-05-14T10:45:01.861Z,32.06
2023-05-14T10:47:32.071Z,31.61
2023-05-14T10:50:02.649Z,30.49
2023-05-14T10:52:32.367Z,30.80
2023-05-14T10:55:03.642Z,31.45
2023-05-14T10:57:32.903Z,33.60
2023-05-14T11:00:01.876Z,31.06
2023-05-14T11:02:38.618Z,31.17
2023-05-14T11:05:11.686Z,30.56
2023-05-14T11:07:48.501Z,29.34
2023-05-14T11:10:22.137Z,29.76
2023-05-14T11:12:51.793Z,30.14
2023-05-14T11:15:23.509Z,29.95
2023-05-14T11:17:53.067Z,30.55
2023-05-14T11:20:21.995Z,30.11
2023-05-14T11:22:51.948Z,31.88
2023-05-14T11:25:21.856Z,31.06
2023-05-14T11:27:50.552Z,30.97
2023-05-14T11:30:20.270Z,31.30
2023-05-14T11:32:50.204Z,30.96
2023-05-14T11:35:18.916Z,31.55
2023-05-14T11:37:55.098Z,32.32
2023-05-14T11:40:23.664Z,30.86
2023-05-14T11:42:53.660Z,30.76
2023-05-14T11:45:27.140Z,29.27
2023-05-14T11:47:55.599Z,29.68
2023-05-14T11:50:24.051Z,30.31
2023-05-14T11:52:57.257Z,31.45
2023-05-14T11:55:25.653Z,31.28
2023-05-14T11:57:54.511Z,31.43
2023-05-14T12:00:24.874Z,30.61
2023-05-14T12:02:54.614Z,30.57
2023-05-14T12:05:22.814Z,30.61
2023-05-14T12:07:51.027Z,30.37
2023-05-14T12:10:19.246Z,31.27
2023-05-14T12:12:48.855Z,30.57
2023-05-14T12:15:21.910Z,30.00
2023-05-14T12:17:51.956Z,30.02
2023-05-14T12:20:20.641Z,31.69
2023-05-14T12:22:49.135Z,29.77
2023-05-14T12:25:17.520Z,30.02
2023-05-14T12:27:45.951Z,30.18
2023-05-14T12:32:46.853Z,30.28
2023-05-14T12:35:15.312Z,31.44
2023-05-14T12:37:43.854Z,31.60
2023-05-14T12:40:12.340Z,31.82
2023-05-14T12:42:40.564Z,30.66
2023-05-14T12:45:09.062Z,30.74
2023-05-14T12:47:37.612Z,30.99
2023-05-14T12:50:06.632Z,31.58
2023-05-14T12:55:07.730Z,31.56
2023-05-14T12:57:36.042Z,32.77
2023-05-14T13:00:08.431Z,32.65
2023-05-14T13:02:42.731Z,31.31
2023-05-14T13:05:12.689Z,30.48
2023-05-14T13:07:41.603Z,32.01
2023-05-14T13:10:10.473Z,31.64
2023-05-14T13:12:38.920Z,32.18
2023-05-14T13:15:08.093Z,31.59
2023-05-14T13:17:36.669Z,30.67
2023-05-14T13:20:05.406Z,31.18
2023-05-14T13:22:33.669Z,30.50
2023-05-14T13:25:01.988Z,31.63
2023-05-14T13:27:30.632Z,32.11
2023-05-14T13:29:58.914Z,31.89
2023-05-14T13:32:27.208Z,31.60
2023-05-14T13:34:55.805Z,31.85
2023-05-14T13:37:25.713Z,32.29
2023-05-14T13:39:53.891Z,33.02
2023-05-14T13:42:22.262Z,33.63
2023-05-14T13:44:50.921Z,33.67
2023-05-14T13:47:19.169Z,34.02
2023-05-14T13:49:47.393Z,34.47
2023-05-14T13:52:15.753Z,34.20
2023-05-14T13:54:44.086Z,34.50
2023-05-14T13:57:12.415Z,35.35
2023-05-14T13:59:41.036Z,35.19
2023-05-14T14:02:09.715Z,35.51
2023-05-14T14:04:38.179Z,35.43
2023-05-14T14:07:09.132Z,35.69
2023-05-14T14:09:37.356Z,35.55
2023-05-14T14:12:06.339Z,36.04
2023-05-14T14:14:34.646Z,36.55
2023-05-14T14:17:02.951Z,36.16
2023-05-14T14:19:31.138Z,35.76
2023-05-14T14:21:59.286Z,36.33
2023-05-14T14:24:27.604Z,37.66
2023-05-14T14:26:55.834Z,37.80
2023-05-14T14:29:24.126Z,36.46
2023-05-14T14:31:52.515Z,36.47
2023-05-14T14:34:21.089Z,36.81
2023-05-14T14:36:49.295Z,36.13
2023-05-14T14:39:17.539Z,35.74
2023-05-14T14:41:45.871Z,36.17
2023-05-14T14:44:14.133Z,36.21
2023-05-14T14:46:43.093Z,36.73
2023-05-14T14:49:11.290Z,37.06
2023-05-14T14:51:39.736Z,37.01
2023-05-14T14:54:08.044Z,36.98
2023-05-14T14:56:36.367Z,36.88
2023-05-14T14:59:04.661Z,37.14
2023-05-14T15:01:33.460Z,38.16
2023-05-14T15:04:01.756Z,37.74
2023-05-14T15:06:29.948Z,38.31
2023-05-14T15:08:58.216Z,38.61
2023-05-14T15:11:26.810Z,38.29
2023-05-14T15:13:55.115Z,39.16
2023-05-14T15:16:23.403Z,38.77
2023-05-14T15:18:51.638Z,39.76
2023-05-14T15:21:19.924Z,39.54
2023-05-14T15:23:48.183Z,40.77
2023-05-14T15:26:16.528Z,40.89
2023-05-14T15:28:44.725Z,40.83
2023-05-14T15:31:12.910Z,41.70
2023-05-14T15:33:41.882Z,42.08
2023-05-14T15:36:10.184Z,41.95
2023-05-14T15:38:38.433Z,42.01
2023-05-14T15:41:06.854Z,42.20
2023-05-14T15:43:35.545Z,42.32
2023-05-14T15:46:03.803Z,42.97
2023-05-14T15:48:32.071Z,42.38
2023-05-14T15:51:00.386Z,42.35
2023-05-14T15:53:28.918Z,42.84
2023-05-14T15:55:57.225Z,43.16
2023-05-14T15:58:26.469Z,43.22
2023-05-14T16:00:54.812Z,43.52
2023-05-14T16:03:23.201Z,44.02
2023-05-14T16:05:52.286Z,43.88
2023-05-14T16:08:20.482Z,43.69
2023-05-14T16:10:48.720Z,43.81
2023-05-14T16:13:16.953Z,43.45
2023-05-14T16:15:45.070Z,43.50
2023-05-14T16:18:13.282Z,44.10
2023-05-14T16:20:41.632Z,44.22
2023-05-14T16:23:09.854Z,43.87
2023-05-14T16:25:38.619Z,43.40
2023-05-14T16:28:08.122Z,43.10
2023-05-14T16:30:36.329Z,43.27
2023-05-14T16:33:04.501Z,42.91
2023-05-14T16:35:32.826Z,42.96
2023-05-14T16:38:01.854Z,43.63
2023-05-14T16:40:30.445Z,44.62
2023-05-14T16:42:58.651Z,44.12
2023-05-14T16:45:27.135Z,44.21
2023-05-14T16:47:55.493Z,43.75
2023-05-14T16:50:23.752Z,44.10
2023-05-14T16:52:52.324Z,44.10
2023-05-14T16:55:20.762Z,45.59
2023-05-14T16:57:49.038Z,45.75
2023-05-14T17:00:18.057Z,44.63
2023-05-14T17:02:49.301Z,44.78
2023-05-14T17:05:17.708Z,45.61
2023-05-14T17:07:45.925Z,45.92
2023-05-14T17:10:14.461Z,45.71
2023-05-14T17:12:42.751Z,46.91
2023-05-14T17:15:10.325Z,47.40
2023-05-14T17:17:38.563Z,48.21
2023-05-14T17:20:08.294Z,48.33
2023-05-14T17:22:36.953Z,48.58
2023-05-14T17:25:05.794Z,49.22
2023-05-14T17:27:34.086Z,48.56
2023-05-14T17:30:03.792Z,48.47
2023-05-14T17:32:32.219Z,48.95
2023-05-14T17:35:00.589Z,48.86
2023-05-14T17:37:29.103Z,48.42
2023-05-14T17:39:57.432Z,48.57
2023-05-14T17:42:25.717Z,49.57
2023-05-14T17:44:54.095Z,49.75
2023-05-14T17:47:22.365Z,48.89
2023-05-14T17:49:51.381Z,49.65
2023-05-14T17:52:19.526Z,50.81
2023-05-14T17:54:47.692Z,50.59
2023-05-14T17:57:16.018Z,50.74
2023-05-14T17:59:44.217Z,51.08
2023-05-14T18:02:12.434Z,51.04
2023-05-14T18:04:40.734Z,50.65
2023-05-14T18:07:08.983Z,50.78
2023-05-14T18:09:37.296Z,50.28
2023-05-14T18:12:05.880Z,50.59
2023-05-14T18:14:34.441Z,50.74
2023-05-14T18:17:02.848Z,50.12
2023-05-14T18:19:31.609Z,51.48
2023-05-14T18:21:59.766Z,52.22
2023-05-14T18:24:28.036Z,51.65
2023-05-14T18:26:56.265Z,51.60
2023-05-14T18:29:24.515Z,51.67
2023-05-14T18:31:52.792Z,53.02
2023-05-14T18:34:21.006Z,53.38
2023-05-14T18:36:50.265Z,54.29
2023-05-14T18:39:18.899Z,53.36
2023-05-14T18:41:47.112Z,53.29
2023-05-14T18:44:15.306Z,53.17
2023-05-14T18:46:43.633Z,53.33
2023-05-14T18:49:12.103Z,53.00
2023-05-14T18:51:40.354Z,52.78
2023-05-14T18:54:08.671Z,52.92
2023-05-14T18:56:37.542Z,54.31
2023-05-14T18:59:05.721Z,53.68
2023-05-14T19:01:33.983Z,54.54
2023-05-14T19:04:05.188Z,54.82
2023-05-14T19:06:33.891Z,53.98
2023-05-14T19:09:02.221Z,53.94
2023-05-14T19:11:30.466Z,54.54
2023-05-14T19:13:58.661Z,54.55
2023-05-14T19:16:27.220Z,54.24
2023-05-14T19:18:56.960Z,54.35
2023-05-14T19:21:25.282Z,54.96
2023-05-14T19:23:53.553Z,54.28
2023-05-14T19:26:21.985Z,55.42
2023-05-14T19:28:50.687Z,55.17
2023-05-14T19:31:18.955Z,55.43
2023-05-14T19:33:47.195Z,54.98
2023-05-14T19:36:15.749Z,56.42
2023-05-14T19:38:43.963Z,56.42
2023-05-14T19:41:12.253Z,56.15
2023-05-14T19:43:40.915Z,55.29
2023-05-14T19:46:09.314Z,55.86
2023-05-14T19:48:38.970Z,56.00
2023-05-14T19:51:07.271Z,55.75
2023-05-14T19:53:36.007Z,56.21
2023-05-14T19:56:04.397Z,56.24
2023-05-14T19:58:32.699Z,56.53
2023-05-14T20:01:01.047Z,58.01
2023-05-14T20:03:30.119Z,56.20
2023-05-14T20:05:58.404Z,56.66
2023-05-14T20:08:26.731Z,57.31
2023-05-14T20:10:55.416Z,57.60
2023-05-14T20:13:25.251Z,58.13
2023-05-14T20:15:55.358Z,58.58
2023-05-14T20:18:23.632Z,58.19
2023-05-14T20:20:51.990Z,58.82
2023-05-14T20:23:20.991Z,58.54
2023-05-14T20:25:49.328Z,59.28
2023-05-14T20:28:17.609Z,60.25
2023-05-14T20:30:46.531Z,59.69
2023-05-14T20:33:15.146Z,58.85
2023-05-14T20:35:44.258Z,59.73
2023-05-14T20:38:13.573Z,59.55
2023-05-14T20:40:41.960Z,60.37
2023-05-14T20:43:10.399Z,58.90
2023-05-14T20:45:39.263Z,59.82
2023-05-14T20:48:10.288Z,59.97
2023-05-14T20:50:38.621Z,59.35
2023-05-14T20:53:07.039Z,59.93
2023-05-14T20:55:35.470Z,59.58
2023-05-14T20:58:03.842Z,59.59
2023-05-14T21:00:32.124Z,59.93
2023-05-14T21:03:00.724Z,60.39
2023-05-14T21:05:29.221Z,60.62
2023-05-14T21:07:57.491Z,60.08
2023-05-14T21:10:25.899Z,60.13
2023-05-14T21:12:54.511Z,59.42
2023-05-14T21:15:23.422Z,59.27
2023-05-14T21:17:51.913Z,60.37
2023-05-14T21:20:20.254Z,60.05
2023-05-14T21:22:48.441Z,60.57
2023-05-14T21:25:17.149Z,60.50
2023-05-14T21:27:45.558Z,60.69
2023-05-14T21:30:14.049Z,61.46
2023-05-14T21:32:42.463Z,62.23
2023-05-14T21:35:10.791Z,61.49
2023-05-14T21:37:39.971Z,60.82
2023-05-14T21:40:09.504Z,60.79
2023-05-14T21:42:38.362Z,61.17
2023-05-14T21:45:07.103Z,61.07
2023-05-14T21:47:35.613Z,61.30
2023-05-14T21:50:05.036Z,61.33
2023-05-14T21:52:33.730Z,61.95
2023-05-14T21:55:01.978Z,61.16
2023-05-14T21:57:33.122Z,61.20
2023-05-14T22:00:04.689Z,61.26
2023-05-14T22:02:32.890Z,62.18
2023-05-14T22:05:01.508Z,61.74
2023-05-14T22:07:29.782Z,62.53
2023-05-14T22:09:57.972Z,62.03
2023-05-14T22:12:26.940Z,62.19
2023-05-14T22:14:55.202Z,62.78
2023-05-14T22:17:23.577Z,62.78
2023-05-14T22:19:51.932Z,63.56
2023-05-14T22:22:20.090Z,64.06
2023-05-14T22:24:48.308Z,63.75
2023-05-14T22:27:16.669Z,64.55
2023-05-14T22:29:45.156Z,62.65
2023-05-14T22:32:13.426Z,63.19
2023-05-14T22:34:41.714Z,62.34
2023-05-14T22:37:10.046Z,62.36
2023-05-14T22:39:38.485Z,61.79
2023-05-14T22:42:06.736Z,61.83
2023-05-14T22:44:36.721Z,61.82
2023-05-14T22:47:05.400Z,62.21
2023-05-14T22:49:33.602Z,61.58
2023-05-14T22:52:01.876Z,61.78
2023-05-14T22:54:30.137Z,61.84
2023-05-14T22:56:58.698Z,62.01
2023-05-14T22:59:26.846Z,62.15
2023-05-14T23:01:55.126Z,61.85
2023-05-14T23:04:23.467Z,62.11
2023-05-14T23:06:52.052Z,62.79
2023-05-14T23:09:20.649Z,62.51
2023-05-14T23:11:48.892Z,62.71
2023-05-14T23:14:18.132Z,62.96
2023-05-14T23:16:46.444Z,62.10
2023-05-14T23:19:14.777Z,62.91
2023-05-14T23:21:43.129Z,63.53
2023-05-14T23:24:11.380Z,62.51
2023-05-14T23:26:39.827Z,63.44
2023-05-14T23:29:08.131Z,61.99
2023-05-14T23:31:36.953Z,62.48
2023-05-14T23:34:05.297Z,63.56
2023-05-14T23:36:33.639Z,63.24
2023-05-14T23:39:01.953Z,63.74
2023-05-14T23:41:30.250Z,63.18
2023-05-14T23:43:58.576Z,64.52
2023-05-14T23:46:27.120Z,65.05
2023-05-14T23:48:57.238Z,65.37
2023-05-14T23:51:27.263Z,64.58
2023-05-14T23:53:58.664Z,63.81
2023-05-14T23:56:29.370Z,63.91
2023-05-14T23:58:57.714Z,63.93
